sensor_id;sensor_type;location;lat;lon;timestamp;P1;durP1;ratioP1;P2;durP2;ratioP2
15929;SDS011;8064;51.142;4.780;2023-04-01T00:00:16;6.33;;;5.73;;
15929;SDS011;8064;51.142;4.780;2023-04-01T00:02:42;5.90;;;5.40;;
15929;SDS011;8064;51.142;4.780;2023-04-01T00:05:08;6.90;;;6.30;;
15929;SDS011;8064;51.142;4.780;2023-04-01T00:07:36;7.20;;;6.33;;
15929;SDS011;8064;51.142;4.780;2023-04-01T00:10:03;7.23;;;6.53;;
15929;SDS011;8064;51.142;4.780;2023-04-01T00:12:29;7.53;;;6.90;;
15929;SDS011;8064;51.142;4.780;2023-04-01T00:14:55;7.17;;;6.57;;
15929;SDS011;8064;51.142;4.780;2023-04-01T00:17:21;6.60;;;6.10;;
15929;SDS011;8064;51.142;4.780;2023-04-01T00:19:47;7.37;;;6.77;;
15929;SDS011;8064;51.142;4.780;2023-04-01T00:22:13;7.70;;;7.10;;
15929;SDS011;8064;51.142;4.780;2023-04-01T00:24:39;8.30;;;7.60;;
15929;SDS011;8064;51.142;4.780;2023-04-01T00:27:05;8.33;;;7.67;;
15929;SDS011;8064;51.142;4.780;2023-04-01T00:29:33;9.03;;;8.27;;
15929;SDS011;8064;51.142;4.780;2023-04-01T00:31:59;8.70;;;8.00;;
15929;SDS011;8064;51.142;4.780;2023-04-01T00:34:25;8.30;;;7.47;;
15929;SDS011;8064;51.142;4.780;2023-04-01T00:36:52;8.13;;;7.50;;
15929;SDS011;8064;51.142;4.780;2023-04-01T00:39:18;8.70;;;8.00;;
15929;SDS011;8064;51.142;4.780;2023-04-01T00:41:44;8.37;;;7.87;;
15929;SDS011;8064;51.142;4.780;2023-04-01T00:44:14;8.57;;;7.83;;
15929;SDS011;8064;51.142;4.780;2023-04-01T00:46:44;8.73;;;8.03;;
15929;SDS011;8064;51.142;4.780;2023-04-01T00:49:10;8.13;;;7.50;;
15929;SDS011;8064;51.142;4.780;2023-04-01T00:51:37;8.87;;;8.13;;
15929;SDS011;8064;51.142;4.780;2023-04-01T00:54:04;8.63;;;7.83;;
15929;SDS011;8064;51.142;4.780;2023-04-01T00:59:18;7.70;;;7.03;;
15929;SDS011;8064;51.142;4.780;2023-04-01T01:01:49;8.90;;;8.30;;
15929;SDS011;8064;51.142;4.780;2023-04-01T01:04:27;9.17;;;8.60;;
15929;SDS011;8064;51.142;4.780;2023-04-01T01:10:13;9.93;;;9.13;;
15929;SDS011;8064;51.142;4.780;2023-04-01T01:13:01;10.20;;;9.30;;
15929;SDS011;8064;51.142;4.780;2023-04-01T01:15:52;9.87;;;9.07;;
15929;SDS011;8064;51.142;4.780;2023-04-01T01:18:26;10.20;;;8.73;;
15929;SDS011;8064;51.142;4.780;2023-04-01T01:37:51;9.10;;;8.40;;
15929;SDS011;8064;51.142;4.780;2023-04-01T01:40:20;11.53;;;10.40;;
15929;SDS011;8064;51.142;4.780;2023-04-01T01:42:48;9.47;;;8.67;;
15929;SDS011;8064;51.142;4.780;2023-04-01T01:45:18;9.30;;;8.47;;
15929;SDS011;8064;51.142;4.780;2023-04-01T01:47:46;9.40;;;8.80;;
15929;SDS011;8064;51.142;4.780;2023-04-01T01:50:14;8.90;;;8.00;;
15929;SDS011;8064;51.142;4.780;2023-04-01T01:52:41;8.97;;;8.27;;
15929;SDS011;8064;51.142;4.780;2023-04-01T01:57:54;9.50;;;8.50;;
15929;SDS011;8064;51.142;4.780;2023-04-01T02:00:23;9.60;;;8.90;;
15929;SDS011;8064;51.142;4.780;2023-04-01T02:02:49;9.17;;;8.43;;
15929;SDS011;8064;51.142;4.780;2023-04-01T02:05:18;9.23;;;8.53;;
15929;SDS011;8064;51.142;4.780;2023-04-01T02:07:49;9.53;;;8.70;;
15929;SDS011;8064;51.142;4.780;2023-04-01T02:10:22;9.63;;;8.73;;
15929;SDS011;8064;51.142;4.780;2023-04-01T02:12:53;9.80;;;8.90;;
15929;SDS011;8064;51.142;4.780;2023-04-01T02:15:24;8.30;;;7.70;;
15929;SDS011;8064;51.142;4.780;2023-04-01T02:17:55;9.27;;;8.37;;
15929;SDS011;8064;51.142;4.780;2023-04-01T02:20:22;8.70;;;7.90;;
15929;SDS011;8064;51.142;4.780;2023-04-01T02:22:50;8.70;;;8.00;;
15929;SDS011;8064;51.142;4.780;2023-04-01T02:25:18;8.47;;;7.67;;
15929;SDS011;8064;51.142;4.780;2023-04-01T02:27:48;8.90;;;8.13;;
15929;SDS011;8064;51.142;4.780;2023-04-01T02:30:14;7.63;;;6.93;;
15929;SDS011;8064;51.142;4.780;2023-04-01T02:32:42;8.13;;;7.33;;
15929;SDS011;8064;51.142;4.780;2023-04-01T02:35:09;7.30;;;6.77;;
15929;SDS011;8064;51.142;4.780;2023-04-01T02:37:36;7.73;;;6.93;;
15929;SDS011;8064;51.142;4.780;2023-04-01T02:40:04;7.73;;;7.13;;
15929;SDS011;8064;51.142;4.780;2023-04-01T02:42:32;7.13;;;6.57;;
15929;SDS011;8064;51.142;4.780;2023-04-01T02:44:59;6.87;;;6.37;;
15929;SDS011;8064;51.142;4.780;2023-04-01T02:47:25;6.97;;;6.40;;
15929;SDS011;8064;51.142;4.780;2023-04-01T02:49:50;7.33;;;6.73;;
15929;SDS011;8064;51.142;4.780;2023-04-01T02:52:23;7.37;;;6.73;;
15929;SDS011;8064;51.142;4.780;2023-04-01T02:54:49;7.67;;;6.83;;
15929;SDS011;8064;51.142;4.780;2023-04-01T02:57:15;6.83;;;6.40;;
15929;SDS011;8064;51.142;4.780;2023-04-01T02:59:41;7.30;;;6.70;;
15929;SDS011;8064;51.142;4.780;2023-04-01T03:02:06;7.43;;;6.80;;
15929;SDS011;8064;51.142;4.780;2023-04-01T03:04:32;8.50;;;7.80;;
15929;SDS011;8064;51.142;4.780;2023-04-01T03:06:58;7.53;;;7.03;;
15929;SDS011;8064;51.142;4.780;2023-04-01T03:09:24;7.90;;;7.30;;
15929;SDS011;8064;51.142;4.780;2023-04-01T03:11:50;7.77;;;7.07;;
15929;SDS011;8064;51.142;4.780;2023-04-01T03:14:15;7.80;;;7.17;;
15929;SDS011;8064;51.142;4.780;2023-04-01T03:16:41;7.70;;;7.10;;
15929;SDS011;8064;51.142;4.780;2023-04-01T03:19:07;7.40;;;6.80;;
15929;SDS011;8064;51.142;4.780;2023-04-01T03:21:32;7.93;;;7.53;;
15929;SDS011;8064;51.142;4.780;2023-04-01T03:23:58;6.67;;;6.27;;
15929;SDS011;8064;51.142;4.780;2023-04-01T03:26:24;7.20;;;6.70;;
15929;SDS011;8064;51.142;4.780;2023-04-01T03:28:51;7.30;;;6.80;;
15929;SDS011;8064;51.142;4.780;2023-04-01T03:31:17;7.03;;;6.60;;
15929;SDS011;8064;51.142;4.780;2023-04-01T03:33:43;7.20;;;6.80;;
15929;SDS011;8064;51.142;4.780;2023-04-01T03:36:09;7.70;;;7.20;;
15929;SDS011;8064;51.142;4.780;2023-04-01T03:38:37;6.77;;;6.37;;
15929;SDS011;8064;51.142;4.780;2023-04-01T03:41:04;6.57;;;6.07;;
15929;SDS011;8064;51.142;4.780;2023-04-01T03:43:31;6.67;;;6.27;;
15929;SDS011;8064;51.142;4.780;2023-04-01T03:45:57;6.33;;;5.93;;
15929;SDS011;8064;51.142;4.780;2023-04-01T03:48:23;6.47;;;6.07;;
15929;SDS011;8064;51.142;4.780;2023-04-01T03:50:50;6.00;;;5.70;;
15929;SDS011;8064;51.142;4.780;2023-04-01T03:53:16;6.33;;;5.87;;
15929;SDS011;8064;51.142;4.780;2023-04-01T03:55:42;6.13;;;5.80;;
15929;SDS011;8064;51.142;4.780;2023-04-01T03:58:08;5.70;;;5.40;;
15929;SDS011;8064;51.142;4.780;2023-04-01T04:00:34;5.70;;;5.37;;
15929;SDS011;8064;51.142;4.780;2023-04-01T04:03:00;5.70;;;5.40;;
15929;SDS011;8064;51.142;4.780;2023-04-01T04:05:26;5.90;;;5.60;;
15929;SDS011;8064;51.142;4.780;2023-04-01T04:07:53;5.53;;;5.23;;
15929;SDS011;8064;51.142;4.780;2023-04-01T04:10:19;5.57;;;5.17;;
15929;SDS011;8064;51.142;4.780;2023-04-01T04:12:45;6.53;;;6.03;;
15929;SDS011;8064;51.142;4.780;2023-04-01T04:15:11;5.80;;;5.40;;
15929;SDS011;8064;51.142;4.780;2023-04-01T04:17:37;5.27;;;4.97;;
15929;SDS011;8064;51.142;4.780;2023-04-01T04:20:03;4.93;;;4.63;;
15929;SDS011;8064;51.142;4.780;2023-04-01T04:22:29;5.53;;;5.13;;
15929;SDS011;8064;51.142;4.780;2023-04-01T04:24:55;5.97;;;5.57;;
15929;SDS011;8064;51.142;4.780;2023-04-01T04:27:21;5.97;;;5.47;;
15929;SDS011;8064;51.142;4.780;2023-04-01T04:29:46;6.20;;;5.80;;
15929;SDS011;8064;51.142;4.780;2023-04-01T04:32:12;5.43;;;5.00;;
15929;SDS011;8064;51.142;4.780;2023-04-01T04:34:38;7.97;;;6.83;;
15929;SDS011;8064;51.142;4.780;2023-04-01T04:37:04;6.53;;;6.07;;
15929;SDS011;8064;51.142;4.780;2023-04-01T04:39:29;6.27;;;5.87;;
15929;SDS011;8064;51.142;4.780;2023-04-01T04:41:55;7.37;;;6.37;;
15929;SDS011;8064;51.142;4.780;2023-04-01T04:44:21;6.90;;;6.40;;
15929;SDS011;8064;51.142;4.780;2023-04-01T04:46:47;6.80;;;6.30;;
15929;SDS011;8064;51.142;4.780;2023-04-01T04:49:12;6.87;;;6.37;;
15929;SDS011;8064;51.142;4.780;2023-04-01T04:51:38;6.37;;;5.80;;
15929;SDS011;8064;51.142;4.780;2023-04-01T04:54:05;6.83;;;6.30;;
15929;SDS011;8064;51.142;4.780;2023-04-01T04:56:32;7.07;;;6.47;;
15929;SDS011;8064;51.142;4.780;2023-04-01T04:58:58;6.03;;;5.63;;
15929;SDS011;8064;51.142;4.780;2023-04-01T05:01:24;6.93;;;6.43;;
15929;SDS011;8064;51.142;4.780;2023-04-01T05:03:50;6.20;;;5.80;;
15929;SDS011;8064;51.142;4.780;2023-04-01T05:06:16;6.83;;;6.33;;
15929;SDS011;8064;51.142;4.780;2023-04-01T05:08:43;6.63;;;6.03;;
15929;SDS011;8064;51.142;4.780;2023-04-01T05:11:11;7.20;;;6.60;;
15929;SDS011;8064;51.142;4.780;2023-04-01T05:13:39;6.60;;;6.10;;
15929;SDS011;8064;51.142;4.780;2023-04-01T05:16:08;6.43;;;5.93;;
15929;SDS011;8064;51.142;4.780;2023-04-01T05:18:35;6.20;;;5.80;;
15929;SDS011;8064;51.142;4.780;2023-04-01T05:21:00;6.13;;;5.60;;
15929;SDS011;8064;51.142;4.780;2023-04-01T05:23:26;6.37;;;5.97;;
15929;SDS011;8064;51.142;4.780;2023-04-01T05:25:52;5.43;;;5.10;;
15929;SDS011;8064;51.142;4.780;2023-04-01T05:28:18;5.33;;;4.90;;
15929;SDS011;8064;51.142;4.780;2023-04-01T05:30:45;6.37;;;5.77;;
15929;SDS011;8064;51.142;4.780;2023-04-01T05:33:11;5.57;;;5.17;;
15929;SDS011;8064;51.142;4.780;2023-04-01T05:35:38;5.70;;;5.13;;
15929;SDS011;8064;51.142;4.780;2023-04-01T05:38:04;5.87;;;5.37;;
15929;SDS011;8064;51.142;4.780;2023-04-01T05:40:31;5.20;;;4.90;;
15929;SDS011;8064;51.142;4.780;2023-04-01T05:42:58;5.10;;;4.80;;
15929;SDS011;8064;51.142;4.780;2023-04-01T05:45:24;4.87;;;4.57;;
15929;SDS011;8064;51.142;4.780;2023-04-01T05:47:50;4.73;;;4.43;;
15929;SDS011;8064;51.142;4.780;2023-04-01T05:50:16;4.80;;;4.50;;
15929;SDS011;8064;51.142;4.780;2023-04-01T05:52:42;4.93;;;4.57;;
15929;SDS011;8064;51.142;4.780;2023-04-01T05:55:08;4.60;;;4.30;;
15929;SDS011;8064;51.142;4.780;2023-04-01T05:57:34;4.67;;;4.37;;
15929;SDS011;8064;51.142;4.780;2023-04-01T06:00:00;4.93;;;4.60;;
15929;SDS011;8064;51.142;4.780;2023-04-01T06:02:26;4.93;;;4.63;;
15929;SDS011;8064;51.142;4.780;2023-04-01T06:22:21;4.27;;;3.97;;
15929;SDS011;8064;51.142;4.780;2023-04-01T06:25:16;4.37;;;4.17;;
15929;SDS011;8064;51.142;4.780;2023-04-01T06:28:05;4.10;;;3.90;;
15929;SDS011;8064;51.142;4.780;2023-04-01T06:31:06;5.23;;;4.30;;
15929;SDS011;8064;51.142;4.780;2023-04-01T06:40:02;4.60;;;4.30;;
15929;SDS011;8064;51.142;4.780;2023-04-01T06:42:45;4.60;;;4.30;;
15929;SDS011;8064;51.142;4.780;2023-04-01T06:48:03;4.90;;;4.63;;
15929;SDS011;8064;51.142;4.780;2023-04-01T06:56:07;4.33;;;4.03;;
15929;SDS011;8064;51.142;4.780;2023-04-01T06:58:38;4.93;;;4.53;;
15929;SDS011;8064;51.142;4.780;2023-04-01T07:01:12;4.73;;;4.43;;
15929;SDS011;8064;51.142;4.780;2023-04-01T07:03:44;5.10;;;4.80;;
15929;SDS011;8064;51.142;4.780;2023-04-01T07:06:19;4.87;;;4.63;;
15929;SDS011;8064;51.142;4.780;2023-04-01T07:08:52;5.10;;;4.70;;
15929;SDS011;8064;51.142;4.780;2023-04-01T07:11:24;4.47;;;4.17;;
15929;SDS011;8064;51.142;4.780;2023-04-01T07:13:59;5.03;;;4.73;;
15929;SDS011;8064;51.142;4.780;2023-04-01T07:16:30;4.70;;;4.50;;
15929;SDS011;8064;51.142;4.780;2023-04-01T07:19:17;5.20;;;4.90;;
15929;SDS011;8064;51.142;4.780;2023-04-01T07:21:51;4.90;;;4.67;;
15929;SDS011;8064;51.142;4.780;2023-04-01T07:24:23;5.03;;;4.73;;
15929;SDS011;8064;51.142;4.780;2023-04-01T07:26:53;4.37;;;4.17;;
15929;SDS011;8064;51.142;4.780;2023-04-01T07:29:20;4.70;;;4.50;;
15929;SDS011;8064;51.142;4.780;2023-04-01T07:37:17;4.87;;;4.67;;
15929;SDS011;8064;51.142;4.780;2023-04-01T07:45:44;4.70;;;4.50;;
15929;SDS011;8064;51.142;4.780;2023-04-01T08:24:24;5.33;;;4.97;;
15929;SDS011;8064;51.142;4.780;2023-04-01T08:27:12;5.67;;;5.33;;
15929;SDS011;8064;51.142;4.780;2023-04-01T08:35:48;5.87;;;5.57;;
15929;SDS011;8064;51.142;4.780;2023-04-01T08:38:19;6.13;;;5.83;;
15929;SDS011;8064;51.142;4.780;2023-04-01T08:40:57;6.10;;;5.70;;
15929;SDS011;8064;51.142;4.780;2023-04-01T08:46:33;6.10;;;5.80;;
15929;SDS011;8064;51.142;4.780;2023-04-01T08:52:37;5.40;;;5.10;;
15929;SDS011;8064;51.142;4.780;2023-04-01T09:00:54;5.43;;;5.13;;
15929;SDS011;8064;51.142;4.780;2023-04-01T09:31:57;5.10;;;4.80;;
15929;SDS011;8064;51.142;4.780;2023-04-01T09:37:34;3.87;;;3.67;;
15929;SDS011;8064;51.142;4.780;2023-04-01T10:05:13;4.10;;;3.90;;
15929;SDS011;8064;51.142;4.780;2023-04-01T10:32:45;3.80;;;3.60;;
15929;SDS011;8064;51.142;4.780;2023-04-01T10:50:19;4.20;;;3.90;;
15929;SDS011;8064;51.142;4.780;2023-04-01T11:04:33;5.33;;;4.93;;
15929;SDS011;8064;51.142;4.780;2023-04-01T11:10:15;5.43;;;5.07;;
15929;SDS011;8064;51.142;4.780;2023-04-01T11:27:25;5.53;;;5.10;;
15929;SDS011;8064;51.142;4.780;2023-04-01T11:33:14;5.63;;;5.23;;
15929;SDS011;8064;51.142;4.780;2023-04-01T11:39:01;5.47;;;4.97;;
15929;SDS011;8064;51.142;4.780;2023-04-01T11:44:20;4.10;;;3.80;;
15929;SDS011;8064;51.142;4.780;2023-04-01T11:47:02;5.00;;;4.50;;
15929;SDS011;8064;51.142;4.780;2023-04-01T11:52:47;7.47;;;4.97;;
15929;SDS011;8064;51.142;4.780;2023-04-01T12:06:34;4.67;;;4.27;;
15929;SDS011;8064;51.142;4.780;2023-04-01T12:11:53;4.77;;;4.40;;
15929;SDS011;8064;51.142;4.780;2023-04-01T12:17:16;5.27;;;4.77;;
15929;SDS011;8064;51.142;4.780;2023-04-01T12:20:13;4.87;;;4.50;;
15929;SDS011;8064;51.142;4.780;2023-04-01T13:11:00;4.83;;;4.43;;
15929;SDS011;8064;51.142;4.780;2023-04-01T13:13:38;4.43;;;4.13;;
15929;SDS011;8064;51.142;4.780;2023-04-01T13:24:52;4.37;;;4.07;;
15929;SDS011;8064;51.142;4.780;2023-04-01T13:36:03;5.20;;;3.80;;
15929;SDS011;8064;51.142;4.780;2023-04-01T13:38:44;4.27;;;3.93;;
15929;SDS011;8064;51.142;4.780;2023-04-01T13:41:34;3.60;;;3.33;;
15929;SDS011;8064;51.142;4.780;2023-04-01T13:44:35;3.20;;;3.00;;
15929;SDS011;8064;51.142;4.780;2023-04-01T14:23:05;4.03;;;3.73;;
15929;SDS011;8064;51.142;4.780;2023-04-01T14:37:03;3.77;;;3.37;;
15929;SDS011;8064;51.142;4.780;2023-04-01T14:39:48;4.30;;;4.00;;
15929;SDS011;8064;51.142;4.780;2023-04-01T14:50:50;3.90;;;3.70;;
15929;SDS011;8064;51.142;4.780;2023-04-01T14:55:59;3.50;;;3.30;;
15929;SDS011;8064;51.142;4.780;2023-04-01T15:01:25;3.50;;;3.30;;
15929;SDS011;8064;51.142;4.780;2023-04-01T15:12:57;3.17;;;2.97;;
15929;SDS011;8064;51.142;4.780;2023-04-01T15:23:40;3.23;;;2.93;;
15929;SDS011;8064;51.142;4.780;2023-04-01T15:28:52;2.43;;;2.23;;
15929;SDS011;8064;51.142;4.780;2023-04-01T15:39:51;3.50;;;3.10;;
15929;SDS011;8064;51.142;4.780;2023-04-01T15:59:47;3.17;;;2.93;;
15929;SDS011;8064;51.142;4.780;2023-04-01T16:02:41;3.23;;;3.03;;
15929;SDS011;8064;51.142;4.780;2023-04-01T16:08:18;2.97;;;2.77;;
15929;SDS011;8064;51.142;4.780;2023-04-01T16:16:12;2.60;;;2.50;;
15929;SDS011;8064;51.142;4.780;2023-04-01T16:21:24;3.00;;;2.80;;
15929;SDS011;8064;51.142;4.780;2023-04-01T16:24:10;2.93;;;2.73;;
15929;SDS011;8064;51.142;4.780;2023-04-01T16:26:54;2.70;;;2.50;;
15929;SDS011;8064;51.142;4.780;2023-04-01T16:34:27;3.57;;;3.27;;
15929;SDS011;8064;51.142;4.780;2023-04-01T16:37:03;3.20;;;3.00;;
15929;SDS011;8064;51.142;4.780;2023-04-01T16:39:43;3.27;;;3.03;;
15929;SDS011;8064;51.142;4.780;2023-04-01T16:42:44;3.67;;;3.37;;
15929;SDS011;8064;51.142;4.780;2023-04-01T16:48:11;3.50;;;3.30;;
15929;SDS011;8064;51.142;4.780;2023-04-01T16:50:42;3.70;;;3.50;;
15929;SDS011;8064;51.142;4.780;2023-04-01T16:53:18;3.30;;;3.10;;
15929;SDS011;8064;51.142;4.780;2023-04-01T16:56:03;3.73;;;3.33;;
15929;SDS011;8064;51.142;4.780;2023-04-01T16:58:39;3.43;;;3.23;;
15929;SDS011;8064;51.142;4.780;2023-04-01T17:01:16;3.70;;;3.40;;
15929;SDS011;8064;51.142;4.780;2023-04-01T17:03:51;4.40;;;4.10;;
15929;SDS011;8064;51.142;4.780;2023-04-01T17:12:11;4.20;;;3.90;;
15929;SDS011;8064;51.142;4.780;2023-04-01T17:17:45;4.40;;;4.10;;
15929;SDS011;8064;51.142;4.780;2023-04-01T17:20:32;4.50;;;4.20;;
15929;SDS011;8064;51.142;4.780;2023-04-01T17:39:57;5.40;;;5.00;;
15929;SDS011;8064;51.142;4.780;2023-04-01T17:42:46;5.87;;;5.30;;
15929;SDS011;8064;51.142;4.780;2023-04-01T17:45:34;6.30;;;5.87;;
15929;SDS011;8064;51.142;4.780;2023-04-01T17:48:14;5.17;;;4.73;;
15929;SDS011;8064;51.142;4.780;2023-04-01T17:50:52;6.27;;;5.77;;
15929;SDS011;8064;51.142;4.780;2023-04-01T18:02:21;6.83;;;6.20;;
15929;SDS011;8064;51.142;4.780;2023-04-01T18:22:09;8.13;;;7.27;;
15929;SDS011;8064;51.142;4.780;2023-04-01T18:27:41;11.23;;;7.63;;
15929;SDS011;8064;51.142;4.780;2023-04-01T18:35:27;9.07;;;7.97;;
15929;SDS011;8064;51.142;4.780;2023-04-01T18:38:11;9.73;;;7.87;;
15929;SDS011;8064;51.142;4.780;2023-04-01T18:40:50;9.07;;;8.13;;
15929;SDS011;8064;51.142;4.780;2023-04-01T18:43:32;9.17;;;8.10;;
15929;SDS011;8064;51.142;4.780;2023-04-01T18:46:12;9.90;;;8.90;;
15929;SDS011;8064;51.142;4.780;2023-04-01T18:57:25;10.40;;;8.90;;
15929;SDS011;8064;51.142;4.780;2023-04-01T19:00:08;10.23;;;9.23;;
15929;SDS011;8064;51.142;4.780;2023-04-01T19:02:55;10.50;;;9.50;;
15929;SDS011;8064;51.142;4.780;2023-04-01T19:05:40;10.73;;;9.70;;
15929;SDS011;8064;51.142;4.780;2023-04-01T19:21:56;11.13;;;10.00;;
15929;SDS011;8064;51.142;4.780;2023-04-01T19:32:54;11.57;;;10.47;;
15929;SDS011;8064;51.142;4.780;2023-04-01T19:35:42;11.07;;;10.17;;
15929;SDS011;8064;51.142;4.780;2023-04-01T19:38:24;11.13;;;10.20;;
15929;SDS011;8064;51.142;4.780;2023-04-01T19:41:12;10.90;;;10.10;;
15929;SDS011;8064;51.142;4.780;2023-04-01T19:46:33;10.90;;;10.10;;
15929;SDS011;8064;51.142;4.780;2023-04-01T19:52:00;10.10;;;9.30;;
15929;SDS011;8064;51.142;4.780;2023-04-01T20:00:18;10.40;;;9.60;;
15929;SDS011;8064;51.142;4.780;2023-04-01T20:05:38;9.93;;;9.23;;
15929;SDS011;8064;51.142;4.780;2023-04-01T20:08:15;10.47;;;9.77;;
15929;SDS011;8064;51.142;4.780;2023-04-01T20:11:05;9.60;;;9.00;;
15929;SDS011;8064;51.142;4.780;2023-04-01T20:16:11;9.80;;;9.13;;
15929;SDS011;8064;51.142;4.780;2023-04-01T20:27:07;8.50;;;8.00;;
15929;SDS011;8064;51.142;4.780;2023-04-01T20:29:41;8.53;;;7.93;;
15929;SDS011;8064;51.142;4.780;2023-04-01T20:35:12;10.00;;;9.30;;
15929;SDS011;8064;51.142;4.780;2023-04-01T20:40:58;10.63;;;9.93;;
15929;SDS011;8064;51.142;4.780;2023-04-01T20:52:14;10.90;;;10.10;;
15929;SDS011;8064;51.142;4.780;2023-04-01T21:00:37;10.37;;;9.67;;
15929;SDS011;8064;51.142;4.780;2023-04-01T21:06:18;12.07;;;11.07;;
15929;SDS011;8064;51.142;4.780;2023-04-01T21:09:01;10.63;;;9.90;;
15929;SDS011;8064;51.142;4.780;2023-04-01T21:17:05;12.87;;;11.77;;
15929;SDS011;8064;51.142;4.780;2023-04-01T21:19:50;12.80;;;11.80;;
15929;SDS011;8064;51.142;4.780;2023-04-01T21:22:22;12.50;;;11.60;;
15929;SDS011;8064;51.142;4.780;2023-04-01T21:25:22;12.43;;;11.23;;
15929;SDS011;8064;51.142;4.780;2023-04-01T21:57:17;12.63;;;11.63;;
15929;SDS011;8064;51.142;4.780;2023-04-01T22:05:28;17.53;;;15.93;;
15929;SDS011;8064;51.142;4.780;2023-04-01T22:08:44;17.67;;;16.07;;
15929;SDS011;8064;51.142;4.780;2023-04-01T22:11:23;16.93;;;15.53;;
15929;SDS011;8064;51.142;4.780;2023-04-01T22:14:13;16.67;;;15.27;;
15929;SDS011;8064;51.142;4.780;2023-04-01T22:25:19;16.07;;;14.80;;
15929;SDS011;8064;51.142;4.780;2023-04-01T22:30:59;14.50;;;13.33;;
15929;SDS011;8064;51.142;4.780;2023-04-01T22:36:31;12.67;;;11.57;;
15929;SDS011;8064;51.142;4.780;2023-04-01T22:47:11;10.37;;;9.57;;
15929;SDS011;8064;51.142;4.780;2023-04-01T22:49:59;10.03;;;9.33;;
15929;SDS011;8064;51.142;4.780;2023-04-01T22:52:42;10.40;;;9.50;;
15929;SDS011;8064;51.142;4.780;2023-04-01T22:55:16;10.07;;;9.10;;
15929;SDS011;8064;51.142;4.780;2023-04-01T22:58:03;10.23;;;9.43;;
15929;SDS011;8064;51.142;4.780;2023-04-01T23:03:02;11.33;;;10.50;;
15929;SDS011;8064;51.142;4.780;2023-04-01T23:05:35;10.83;;;10.03;;
15929;SDS011;8064;51.142;4.780;2023-04-01T23:10:52;10.67;;;9.87;;
15929;SDS011;8064;51.142;4.780;2023-04-01T23:13:25;11.73;;;10.83;;
15929;SDS011;8064;51.142;4.780;2023-04-01T23:15:56;11.90;;;10.83;;
15929;SDS011;8064;51.142;4.780;2023-04-01T23:18:25;11.37;;;10.47;;
15929;SDS011;8064;51.142;4.780;2023-04-01T23:21:13;10.13;;;9.23;;
15929;SDS011;8064;51.142;4.780;2023-04-01T23:23:50;7.60;;;7.00;;
15929;SDS011;8064;51.142;4.780;2023-04-01T23:29:11;6.97;;;6.47;;
15929;SDS011;8064;51.142;4.780;2023-04-01T23:31:41;6.07;;;5.67;;
15929;SDS011;8064;51.142;4.780;2023-04-01T23:34:21;6.73;;;6.23;;
15929;SDS011;8064;51.142;4.780;2023-04-01T23:36:52;6.40;;;5.93;;
15929;SDS011;8064;51.142;4.780;2023-04-01T23:42:11;6.67;;;6.17;;
15929;SDS011;8064;51.142;4.780;2023-04-01T23:44:56;6.57;;;6.17;;
15929;SDS011;8064;51.142;4.780;2023-04-01T23:47:26;6.43;;;5.93;;
15929;SDS011;8064;51.142;4.780;2023-04-01T23:49:57;7.60;;;7.00;;
15929;SDS011;8064;51.142;4.780;2023-04-01T23:52:30;6.93;;;6.43;;
15929;SDS011;8064;51.142;4.780;2023-04-01T23:57:43;7.10;;;6.50;;
